Time;durP1;ratioP1;P1;durP2;ratioP2;P2;SDS_P1;SDS_P2;PMS_P1;PMS_P2;Temp;Humidity;BMP_temperature;BMP_pressure;BME280_temperature;BME280_humidity;BME280_pressure;Samples;Min_cycle;Max_cycle;Signal;HPM_P1;HPM_P2
2021/12/02 00:02:12;;;;;;;6.18;5.68;;;4.70;99.90;;;;;;4986007;28;20290;-78
2021/12/02 00:04:40;;;;;;;6.32;5.80;;;4.70;99.90;;;;;;5011378;28;20236;-78
2021/12/02 00:07:08;;;;;;;6.88;6.28;;;4.70;99.90;;;;;;5009025;28;20279;-76
2021/12/02 00:09:38;;;;;;;7.00;6.30;;;4.70;99.90;;;;;;5011060;28;20223;-77
2021/12/02 00:12:07;;;;;;;6.35;5.80;;;4.70;99.90;;;;;;5009213;28;20303;-78
2021/12/02 00:14:40;;;;;;;6.20;5.60;;;4.60;99.90;;;;;;5010565;28;20315;-78
2021/12/02 00:17:12;;;;;;;6.30;5.70;;;4.60;99.90;;;;;;5033500;22;20663;-72
2021/12/02 00:22:27;;;;;;;6.45;5.85;;;4.60;99.90;;;;;;5036007;28;20368;-74
2021/12/02 00:25:03;;;;;;;6.13;5.60;;;4.70;99.90;;;;;;5036941;28;20227;-72
2021/12/02 00:27:31;;;;;;;6.40;5.90;;;4.70;99.90;;;;;;5036499;28;20239;-73
2021/12/02 00:30:00;;;;;;;6.65;5.75;;;4.70;99.90;;;;;;5035884;28;20243;-73
2021/12/02 00:32:31;;;;;;;6.38;5.88;;;4.70;99.90;;;;;;5037151;28;20313;-73
2021/12/02 00:34:58;;;;;;;6.30;5.70;;;4.70;99.90;;;;;;5040174;28;20231;-73
2021/12/02 00:37:27;;;;;;;6.25;5.68;;;4.70;99.90;;;;;;5036522;28;20225;-73
2021/12/02 00:39:57;;;;;;;5.93;5.40;;;4.70;99.90;;;;;;5037391;28;20713;-72
2021/12/02 00:42:26;;;;;;;5.97;5.18;;;4.70;99.90;;;;;;5036221;28;20218;-73
2021/12/02 00:44:54;;;;;;;5.70;5.20;;;4.60;99.90;;;;;;5038361;28;20231;-73
2021/12/02 00:47:23;;;;;;;5.70;5.20;;;4.60;99.90;;;;;;5036508;28;20673;-75
2021/12/02 00:49:50;;;;;;;5.50;5.07;;;4.60;99.90;;;;;;5036900;28;20230;-74
2021/12/02 00:52:18;;;;;;;5.40;4.90;;;4.60;99.90;;;;;;5037329;28;20223;-76
2021/12/02 00:54:47;;;;;;;5.13;4.72;;;4.60;99.90;;;;;;5039586;28;20252;-73
2021/12/02 00:57:16;;;;;;;4.75;4.35;;;4.60;99.90;;;;;;5040982;28;20227;-74
2021/12/02 00:59:44;;;;;;;5.72;5.22;;;4.60;99.90;;;;;;5041816;28;20611;-76
2021/12/02 01:02:12;;;;;;;5.80;5.25;;;4.60;99.90;;;;;;5036875;28;20249;-73
2021/12/02 01:04:39;;;;;;;6.15;5.65;;;4.60;99.90;;;;;;5037307;28;20301;-74
2021/12/02 01:07:06;;;;;;;5.65;5.25;;;4.60;99.90;;;;;;5038197;28;22557;-72
2021/12/02 01:09:34;;;;;;;6.13;5.60;;;4.70;99.90;;;;;;5038016;28;20219;-73
2021/12/02 01:12:01;;;;;;;6.22;5.72;;;4.70;99.90;;;;;;5040560;28;20229;-74
2021/12/02 01:14:30;;;;;;;6.13;5.40;;;4.70;99.90;;;;;;5040539;28;20234;-74
2021/12/02 01:16:57;;;;;;;6.65;6.05;;;4.70;99.90;;;;;;5037655;28;20229;-73
2021/12/02 01:19:25;;;;;;;5.57;5.07;;;4.70;99.90;;;;;;5037139;28;20599;-74
2021/12/02 01:21:54;;;;;;;5.90;5.40;;;4.70;99.90;;;;;;5039813;28;20614;-76
2021/12/02 01:24:22;;;;;;;6.00;5.50;;;4.70;99.90;;;;;;5038270;28;20248;-74
2021/12/02 01:26:52;;;;;;;6.43;5.93;;;4.70;99.90;;;;;;5038436;28;20235;-74
2021/12/02 01:29:21;;;;;;;6.45;5.85;;;4.70;99.90;;;;;;5037718;28;20612;-75
2021/12/02 01:31:54;;;;;;;5.45;5.05;;;4.70;99.90;;;;;;5038903;28;20709;-73
2021/12/02 01:34:26;;;;;;;6.35;5.82;;;4.70;99.90;;;;;;5040319;28;20594;-76
2021/12/02 01:36:55;;;;;;;6.32;5.82;;;4.70;99.90;;;;;;5037991;28;20222;-74
2021/12/02 01:39:23;;;;;;;6.10;5.60;;;4.60;99.90;;;;;;5036597;28;20228;-77
2021/12/02 01:41:52;;;;;;;6.05;5.55;;;4.60;99.90;;;;;;5038330;28;20238;-73
2021/12/02 01:44:20;;;;;;;6.40;5.80;;;4.60;99.90;;;;;;5039029;28;20234;-74
2021/12/02 01:46:51;;;;;;;5.97;5.47;;;4.60;99.90;;;;;;5038437;28;20605;-75
2021/12/02 01:49:20;;;;;;;5.45;5.03;;;4.60;99.90;;;;;;5035760;28;20797;-74
2021/12/02 01:51:49;;;;;;;6.20;4.80;;;4.70;99.90;;;;;;5045625;28;20282;-73
2021/12/02 01:54:19;;;;;;;5.90;5.40;;;4.70;99.90;;;;;;5038927;28;20234;-75
2021/12/02 01:56:49;;;;;;;5.57;5.18;;;4.70;99.90;;;;;;5040216;28;21019;-73
2021/12/02 01:59:19;;;;;;;6.00;5.35;;;4.70;99.90;;;;;;5037625;28;20237;-73
2021/12/02 02:01:49;;;;;;;6.22;5.47;;;4.70;99.90;;;;;;5039644;28;20224;-74
2021/12/02 02:04:19;;;;;;;6.57;5.97;;;4.70;99.90;;;;;;5036945;28;20708;-73
2021/12/02 02:06:55;;;;;;;5.72;5.32;;;4.60;99.90;;;;;;5039053;28;20218;-74
2021/12/02 02:09:23;;;;;;;6.15;5.35;;;4.60;99.90;;;;;;5036739;28;20230;-76
2021/12/02 02:11:51;;;;;;;5.75;5.25;;;4.60;99.90;;;;;;5038485;28;20222;-75
2021/12/02 02:14:18;;;;;;;5.55;5.05;;;4.60;99.90;;;;;;5040119;28;20218;-75
2021/12/02 02:16:47;;;;;;;5.65;5.07;;;4.60;99.90;;;;;;5039410;28;20238;-73
2021/12/02 02:19:14;;;;;;;5.97;5.47;;;4.60;99.90;;;;;;5038202;28;20776;-74
2021/12/02 02:21:43;;;;;;;5.75;5.25;;;4.60;99.90;;;;;;5038027;28;20527;-74
2021/12/02 02:24:14;;;;;;;6.10;5.60;;;4.60;99.90;;;;;;5036857;28;20218;-75
2021/12/02 02:26:42;;;;;;;6.32;5.82;;;4.70;99.90;;;;;;5038173;28;20231;-73
2021/12/02 02:29:11;;;;;;;5.78;5.38;;;4.70;99.90;;;;;;5037692;28;20240;-73
2021/12/02 02:31:41;;;;;;;5.95;5.45;;;4.70;99.90;;;;;;5041253;28;20541;-74
2021/12/02 02:34:08;;;;;;;6.55;6.05;;;4.70;99.90;;;;;;5038508;28;20310;-73
2021/12/02 02:36:40;;;;;;;5.80;5.30;;;4.70;99.90;;;;;;5042252;28;20306;-74
2021/12/02 02:39:09;;;;;;;6.03;5.53;;;4.70;99.90;;;;;;5040132;28;20234;-74
2021/12/02 02:41:40;;;;;;;6.38;5.80;;;4.70;99.90;;;;;;5039040;28;20230;-74
2021/12/02 02:44:09;;;;;;;6.05;5.65;;;4.70;99.90;;;;;;5044035;28;20269;-76
2021/12/02 02:46:38;;;;;;;7.70;6.32;;;4.60;99.90;;;;;;5042419;28;20226;-74
2021/12/02 02:49:07;;;;;;;6.78;6.07;;;4.60;99.90;;;;;;5034623;28;20214;-73
2021/12/02 02:51:36;;;;;;;6.38;5.88;;;4.50;99.90;;;;;;5042941;28;20223;-73
2021/12/02 02:54:06;;;;;;;7.07;6.40;;;4.50;99.90;;;;;;5039758;28;20231;-77
2021/12/02 02:56:39;;;;;;;6.38;5.88;;;4.40;99.90;;;;;;5045892;28;20236;-73
2021/12/02 02:59:13;;;;;;;6.88;6.28;;;4.40;99.90;;;;;;5040720;28;20412;-73
2021/12/02 03:01:51;;;;;;;6.18;5.68;;;4.40;99.90;;;;;;5047090;28;20235;-73
2021/12/02 03:04:33;;;;;;;6.68;6.03;;;4.40;99.90;;;;;;5040307;28;20219;-74
2021/12/02 03:07:04;;;;;;;6.07;5.57;;;4.40;99.90;;;;;;5043290;28;20230;-76
2021/12/02 03:09:52;;;;;;;6.72;5.68;;;4.40;99.90;;;;;;5038792;28;20286;-74
2021/12/02 03:12:26;;;;;;;6.43;5.80;;;4.40;99.90;;;;;;5040194;28;20253;-77
2021/12/02 03:17:41;;;;;;;6.03;5.53;;;4.50;99.90;;;;;;5040736;28;20368;-74
2021/12/02 03:20:09;;;;;;;6.82;6.22;;;4.50;99.90;;;;;;5040652;28;20313;-75
2021/12/02 03:22:36;;;;;;;5.93;5.43;;;4.50;99.90;;;;;;5039340;28;20574;-74
2021/12/02 03:25:04;;;;;;;6.60;6.00;;;4.40;99.90;;;;;;5040618;28;20233;-75
2021/12/02 03:27:32;;;;;;;6.07;5.50;;;4.40;99.90;;;;;;5039819;28;20236;-76
2021/12/02 03:29:59;;;;;;;6.15;5.65;;;4.40;99.90;;;;;;5040740;28;20226;-75
2021/12/02 03:32:26;;;;;;;6.63;6.13;;;4.40;99.90;;;;;;5041033;28;20306;-76
2021/12/02 03:34:54;;;;;;;8.07;6.10;;;4.40;99.90;;;;;;5038538;28;20231;-76
2021/12/02 03:37:21;;;;;;;7.13;6.18;;;4.40;99.90;;;;;;5040847;28;20235;-75
2021/12/02 03:39:48;;;;;;;6.78;6.18;;;4.40;99.90;;;;;;5043931;28;20218;-73
2021/12/02 03:42:15;;;;;;;8.00;7.25;;;4.40;99.90;;;;;;5042813;28;20239;-73
2021/12/02 03:44:44;;;;;;;7.38;6.78;;;4.30;99.90;;;;;;5040162;28;20234;-73
2021/12/02 03:47:11;;;;;;;6.05;5.55;;;4.30;99.90;;;;;;5039886;28;20785;-76
2021/12/02 03:49:40;;;;;;;7.13;6.25;;;4.20;99.90;;;;;;5038196;28;20227;-76
2021/12/02 03:52:08;;;;;;;6.50;5.90;;;4.20;99.90;;;;;;5039013;28;20317;-75
2021/12/02 03:54:35;;;;;;;5.78;5.30;;;4.20;99.90;;;;;;5041814;28;20234;-76
2021/12/02 03:57:02;;;;;;;7.00;6.40;;;4.20;99.90;;;;;;5038942;28;20242;-75
2021/12/02 03:59:31;;;;;;;6.25;5.75;;;4.20;99.90;;;;;;5038279;28;20245;-76
2021/12/02 04:02:00;;;;;;;6.38;5.78;;;4.10;99.90;;;;;;5041106;28;20786;-74
2021/12/02 04:04:27;;;;;;;6.55;5.95;;;4.20;99.90;;;;;;5038623;28;20222;-75
2021/12/02 04:06:54;;;;;;;7.28;6.68;;;4.10;99.90;;;;;;5039614;28;20607;-77
2021/12/02 04:09:23;;;;;;;6.13;5.63;;;4.10;99.90;;;;;;5035052;28;20234;-77
2021/12/02 04:11:56;;;;;;;6.50;5.97;;;4.10;99.90;;;;;;5040053;28;20235;-76
2021/12/02 04:14:26;;;;;;;7.00;6.40;;;4.10;99.90;;;;;;5038625;28;20644;-75
2021/12/02 04:16:57;;;;;;;7.55;6.78;;;4.10;99.90;;;;;;5039006;28;20260;-75
2021/12/02 04:19:26;;;;;;;6.63;6.05;;;4.10;99.90;;;;;;5037649;28;20227;-77
2021/12/02 04:21:53;;;;;;;7.65;6.95;;;4.10;99.90;;;;;;5038018;28;20222;-77
2021/12/02 04:24:21;;;;;;;7.65;6.95;;;4.10;99.90;;;;;;5037942;28;20713;-76
2021/12/02 04:26:49;;;;;;;6.57;5.97;;;4.10;99.90;;;;;;5040850;28;20227;-76
2021/12/02 04:29:17;;;;;;;7.43;6.80;;;4.10;99.90;;;;;;5038838;28;20233;-75
2021/12/02 04:31:45;;;;;;;7.38;6.78;;;4.10;99.90;;;;;;5041355;28;20249;-76
2021/12/02 04:34:13;;;;;;;7.60;7.00;;;4.10;99.90;;;;;;5039978;28;20265;-75
2021/12/02 04:36:42;;;;;;;7.88;7.10;;;4.10;99.90;;;;;;5038664;28;20225;-74
2021/12/02 04:39:09;;;;;;;7.32;6.63;;;4.10;99.90;;;;;;5037898;28;20239;-73
2021/12/02 04:41:36;;;;;;;7.60;6.90;;;4.10;99.90;;;;;;5040265;28;20226;-74
2021/12/02 04:44:04;;;;;;;10.70;7.45;;;4.10;99.90;;;;;;5037107;28;20215;-75
2021/12/02 04:46:31;;;;;;;7.20;6.60;;;4.10;99.90;;;;;;5037194;28;20705;-74
2021/12/02 04:48:58;;;;;;;7.43;6.82;;;4.10;99.90;;;;;;5038569;28;20215;-74
2021/12/02 04:51:26;;;;;;;7.85;7.18;;;4.10;99.90;;;;;;5039362;28;20247;-74
2021/12/02 04:53:54;;;;;;;7.35;6.75;;;4.10;99.90;;;;;;5043230;28;20233;-76
2021/12/02 04:56:21;;;;;;;8.10;7.35;;;4.00;99.90;;;;;;5037980;28;20580;-77
2021/12/02 04:58:48;;;;;;;7.38;6.68;;;4.10;99.90;;;;;;5038241;28;20234;-74
2021/12/02 05:01:15;;;;;;;7.65;7.05;;;4.00;99.90;;;;;;5039760;28;20230;-75
2021/12/02 05:03:43;;;;;;;7.55;6.93;;;4.10;99.90;;;;;;5038221;28;20211;-73
2021/12/02 05:06:10;;;;;;;7.53;6.93;;;4.00;99.90;;;;;;5038706;28;20238;-76
2021/12/02 05:08:37;;;;;;;7.85;7.15;;;4.10;99.90;;;;;;5037264;28;20235;-75
2021/12/02 05:11:06;;;;;;;7.53;6.93;;;4.10;99.90;;;;;;5037489;28;20249;-77
2021/12/02 05:13:33;;;;;;;7.55;6.88;;;4.10;99.90;;;;;;5036973;28;20313;-74
2021/12/02 05:16:00;;;;;;;9.05;7.43;;;4.10;99.90;;;;;;5037834;28;20230;-76
2021/12/02 05:18:27;;;;;;;7.22;6.60;;;4.10;99.90;;;;;;5036368;28;20237;-75
2021/12/02 05:20:54;;;;;;;8.07;7.28;;;4.10;99.90;;;;;;5036560;28;20731;-75
2021/12/02 05:23:22;;;;;;;7.53;6.80;;;4.10;99.90;;;;;;5038258;28;20225;-75
2021/12/02 05:25:49;;;;;;;7.60;7.00;;;4.10;99.90;;;;;;5041350;28;20219;-75
2021/12/02 05:28:18;;;;;;;7.55;6.88;;;4.10;99.90;;;;;;5040983;28;20231;-74
2021/12/02 05:30:45;;;;;;;7.63;6.93;;;4.10;99.90;;;;;;5038134;28;20700;-75
2021/12/02 05:33:12;;;;;;;7.35;6.75;;;4.10;99.90;;;;;;5038640;28;20246;-77
2021/12/02 05:35:40;;;;;;;8.52;7.72;;;4.10;99.90;;;;;;5038916;28;20238;-76
2021/12/02 05:38:07;;;;;;;8.70;7.93;;;4.10;99.90;;;;;;5037200;28;20250;-76
2021/12/02 05:40:34;;;;;;;8.80;7.97;;;4.10;99.90;;;;;;5037280;28;20225;-77
2021/12/02 05:43:02;;;;;;;8.23;7.47;;;4.10;99.90;;;;;;5039094;28;20311;-76
2021/12/02 05:45:30;;;;;;;8.50;7.70;;;4.10;99.90;;;;;;5036934;28;20599;-75
2021/12/02 05:47:58;;;;;;;8.00;7.28;;;4.10;99.90;;;;;;5036982;28;20242;-76
2021/12/02 05:50:25;;;;;;;9.65;8.80;;;4.10;99.90;;;;;;5039535;28;20701;-76
2021/12/02 05:52:53;;;;;;;8.70;8.00;;;4.00;99.90;;;;;;5037463;28;20237;-77
2021/12/02 05:55:20;;;;;;;8.48;7.78;;;4.00;99.90;;;;;;5037122;28;20218;-78
2021/12/02 05:57:47;;;;;;;8.52;7.82;;;4.10;99.90;;;;;;5038513;28;20234;-75
2021/12/02 06:00:15;;;;;;;8.30;7.60;;;4.10;99.90;;;;;;5038000;28;20735;-74
2021/12/02 06:02:44;;;;;;;7.88;7.25;;;4.00;99.90;;;;;;5000344;28;20545;-74
2021/12/02 06:05:16;;;;;;;8.30;7.60;;;4.00;99.90;;;;;;5039978;28;20307;-74
2021/12/02 06:07:44;;;;;;;8.65;7.93;;;4.00;99.90;;;;;;5037254;28;20641;-78
2021/12/02 06:10:11;;;;;;;9.05;8.23;;;4.00;99.90;;;;;;5037559;28;20305;-77
2021/12/02 06:12:38;;;;;;;8.40;7.70;;;4.00;99.90;;;;;;5036444;28;20257;-76
2021/12/02 06:15:06;;;;;;;9.95;9.05;;;4.00;99.90;;;;;;5038338;28;20226;-75
2021/12/02 06:17:35;;;;;;;9.63;8.80;;;4.00;99.90;;;;;;5003099;22;20231;-76
2021/12/02 06:20:05;;;;;;;8.63;7.82;;;4.00;99.90;;;;;;5017320;28;20241;-76
2021/12/02 06:22:32;;;;;;;8.50;7.80;;;4.00;99.90;;;;;;5031034;28;20226;-77
2021/12/02 06:25:17;;;;;;;8.82;8.02;;;4.00;99.90;;;;;;5033457;28;20223;-77
2021/12/02 06:27:46;;;;;;;8.57;7.85;;;4.00;99.90;;;;;;5036738;28;20227;-78
2021/12/02 06:30:14;;;;;;;9.02;8.23;;;4.00;99.90;;;;;;5026077;28;20249;-78
2021/12/02 06:32:41;;;;;;;8.27;7.45;;;4.00;99.90;;;;;;5026451;28;20238;-78
2021/12/02 06:35:11;;;;;;;9.10;8.38;;;4.00;99.90;;;;;;5025442;28;20231;-79
2021/12/02 06:37:39;;;;;;;8.75;7.95;;;4.00;99.90;;;;;;5025154;28;20227;-79
2021/12/02 06:40:07;;;;;;;8.15;7.45;;;4.00;99.90;;;;;;5027363;28;20230;-78
2021/12/02 06:42:34;;;;;;;8.32;7.63;;;4.00;99.90;;;;;;5022299;28;20585;-79
2021/12/02 06:45:02;;;;;;;8.65;7.95;;;4.10;99.90;;;;;;5028727;28;20238;-77
2021/12/02 06:47:32;;;;;;;9.43;8.52;;;4.10;99.90;;;;;;5026076;28;20229;-77
2021/12/02 06:50:01;;;;;;;8.93;8.13;;;4.10;99.90;;;;;;5025681;28;20306;-76
2021/12/02 06:52:31;;;;;;;7.45;6.80;;;4.10;99.90;;;;;;5025794;28;20243;-76
2021/12/02 06:54:58;;;;;;;8.07;7.30;;;4.10;99.90;;;;;;5026221;28;20293;-77
2021/12/02 06:57:25;;;;;;;8.35;7.60;;;4.10;99.90;;;;;;5026728;28;20230;-76
2021/12/02 06:59:53;;;;;;;8.80;8.00;;;4.10;99.90;;;;;;5025897;28;20721;-76
2021/12/02 07:02:20;;;;;;;8.80;8.05;;;4.10;99.90;;;;;;5022424;28;20227;-76
2021/12/02 07:04:48;;;;;;;12.65;8.73;;;4.10;99.90;;;;;;5026369;28;20231;-75
2021/12/02 07:07:16;;;;;;;9.07;8.27;;;4.00;99.90;;;;;;5028433;28;20231;-75
2021/12/02 07:09:44;;;;;;;8.90;8.20;;;4.00;99.90;;;;;;5028354;28;20701;-76
2021/12/02 07:12:12;;;;;;;9.60;7.50;;;3.90;99.90;;;;;;5026997;28;20586;-77
2021/12/02 07:14:42;;;;;;;8.80;8.00;;;3.90;99.90;;;;;;5023799;28;20681;-77
2021/12/02 07:17:09;;;;;;;8.32;7.63;;;4.00;99.90;;;;;;5026356;28;20237;-77
2021/12/02 07:19:39;;;;;;;8.07;7.28;;;4.00;99.90;;;;;;5022739;28;20713;-76
2021/12/02 07:22:06;;;;;;;8.88;7.97;;;4.00;99.90;;;;;;5027307;28;20212;-76
2021/12/02 07:24:33;;;;;;;8.60;7.80;;;4.10;99.90;;;;;;5026142;28;20235;-76
2021/12/02 07:27:02;;;;;;;7.72;7.03;;;4.10;99.90;;;;;;5026127;28;20228;-76
2021/12/02 07:29:31;;;;;;;8.05;7.35;;;4.10;99.90;;;;;;5026184;28;20235;-77
2021/12/02 07:31:59;;;;;;;9.82;8.93;;;4.00;99.90;;;;;;5030254;28;20242;-79
2021/12/02 07:34:29;;;;;;;8.68;7.97;;;4.00;99.90;;;;;;5024795;28;22194;-76
2021/12/02 07:36:57;;;;;;;7.90;7.30;;;4.00;99.90;;;;;;5026167;28;20226;-78
2021/12/02 07:39:25;;;;;;;8.77;7.97;;;4.00;99.90;;;;;;5026206;28;20293;-78
2021/12/02 07:41:53;;;;;;;8.60;7.70;;;4.00;99.90;;;;;;5027143;28;20220;-77
2021/12/02 07:44:22;;;;;;;9.23;8.43;;;4.00;99.90;;;;;;5023656;28;20231;-77
2021/12/02 07:46:50;;;;;;;9.65;8.75;;;4.10;99.90;;;;;;5028983;28;20227;-77
2021/12/02 07:49:17;;;;;;;8.85;7.70;;;4.10;99.90;;;;;;5026077;28;20326;-76
2021/12/02 07:51:46;;;;;;;9.15;8.30;;;4.10;99.90;;;;;;5027302;28;20235;-77
2021/12/02 07:54:13;;;;;;;8.60;7.90;;;4.10;99.90;;;;;;5022683;28;20227;-77
2021/12/02 07:56:40;;;;;;;8.57;7.88;;;4.20;99.90;;;;;;5027035;28;20224;-76
2021/12/02 07:59:09;;;;;;;8.60;7.80;;;4.30;99.90;;;;;;5024505;28;20239;-76
2021/12/02 08:01:38;;;;;;;8.57;7.82;;;4.30;99.90;;;;;;5023833;28;20238;-76
2021/12/02 08:04:07;;;;;;;9.23;8.40;;;4.20;99.90;;;;;;5023559;28;20708;-77
2021/12/02 08:06:34;;;;;;;9.52;8.68;;;4.20;99.90;;;;;;5025420;28;20227;-77
2021/12/02 08:09:01;;;;;;;9.02;8.23;;;4.20;99.90;;;;;;5022598;28;20685;-76
2021/12/02 08:11:28;;;;;;;9.55;8.55;;;4.20;99.90;;;;;;5023185;28;20238;-78
2021/12/02 08:13:57;;;;;;;9.52;8.63;;;4.20;99.90;;;;;;5024407;28;20712;-77
2021/12/02 08:16:24;;;;;;;9.23;8.43;;;4.20;99.90;;;;;;5025881;28;20242;-78
2021/12/02 08:18:52;;;;;;;9.43;8.50;;;4.30;99.90;;;;;;5024705;28;20228;-77
2021/12/02 08:21:19;;;;;;;8.48;7.78;;;4.30;99.90;;;;;;5024681;28;20246;-78
2021/12/02 08:23:47;;;;;;;8.88;8.15;;;4.40;99.90;;;;;;5031037;28;20234;-78
2021/12/02 08:26:16;;;;;;;8.60;7.80;;;4.40;99.90;;;;;;5031953;28;20224;-78
2021/12/02 08:28:43;;;;;;;8.57;7.93;;;4.40;99.90;;;;;;5031537;28;20305;-78
2021/12/02 08:31:10;;;;;;;8.45;7.68;;;4.40;99.90;;;;;;5027641;28;20227;-76
2021/12/02 08:33:37;;;;;;;8.57;7.82;;;4.50;99.90;;;;;;5027610;28;20240;-78
2021/12/02 08:36:06;;;;;;;8.25;7.55;;;4.50;99.90;;;;;;5025851;28;20277;-77
2021/12/02 08:38:35;;;;;;;9.27;8.48;;;4.50;99.90;;;;;;5023628;28;20713;-76
2021/12/02 08:41:03;;;;;;;10.32;9.32;;;4.60;99.90;;;;;;5022581;28;20224;-77
2021/12/02 08:43:30;;;;;;;9.68;8.73;;;4.60;99.90;;;;;;5019259;28;20232;-78
2021/12/02 08:45:57;;;;;;;10.15;9.18;;;4.60;99.90;;;;;;5019261;28;20227;-76
2021/12/02 08:48:24;;;;;;;9.27;8.43;;;4.60;99.90;;;;;;5025749;28;20235;-78
2021/12/02 08:50:51;;;;;;;8.85;8.05;;;4.60;99.90;;;;;;5022844;28;20231;-78
2021/12/02 08:53:20;;;;;;;8.40;7.70;;;4.60;99.90;;;;;;5018987;28;20228;-76
2021/12/02 08:55:47;;;;;;;9.73;8.65;;;4.60;99.90;;;;;;5022839;28;20438;-76
2021/12/02 08:58:14;;;;;;;10.00;9.02;;;4.50;99.90;;;;;;5025186;28;20230;-76
2021/12/02 09:00:41;;;;;;;10.20;9.20;;;4.50;99.90;;;;;;5022728;28;20231;-77
2021/12/02 09:03:11;;;;;;;9.43;8.55;;;4.60;99.90;;;;;;5024035;28;20223;-78
2021/12/02 09:05:39;;;;;;;8.63;7.82;;;4.60;99.90;;;;;;5024290;28;20247;-76
2021/12/02 09:08:06;;;;;;;9.00;8.20;;;4.70;99.90;;;;;;5022255;28;20709;-77
2021/12/02 09:10:35;;;;;;;9.38;8.57;;;4.80;99.90;;;;;;5021437;28;20613;-76
2021/12/02 09:13:07;;;;;;;9.85;9.05;;;4.90;99.90;;;;;;5022292;28;20236;-76
2021/12/02 09:15:35;;;;;;;9.52;8.63;;;4.90;99.90;;;;;;5022370;28;20235;-76
2021/12/02 09:18:02;;;;;;;9.45;8.50;;;4.90;99.90;;;;;;5019520;28;20588;-77
2021/12/02 09:20:29;;;;;;;9.18;8.27;;;4.80;99.90;;;;;;5022925;28;20223;-75
2021/12/02 09:22:56;;;;;;;9.27;8.48;;;4.80;99.90;;;;;;5020253;28;20528;-77
2021/12/02 09:25:23;;;;;;;9.07;8.27;;;4.80;99.90;;;;;;5017244;28;20234;-75
2021/12/02 09:27:52;;;;;;;10.13;9.18;;;4.90;99.90;;;;;;5023406;28;20227;-76
2021/12/02 09:30:19;;;;;;;9.82;8.63;;;5.00;99.90;;;;;;5019622;28;20232;-76
2021/12/02 09:32:46;;;;;;;10.07;9.13;;;5.00;99.90;;;;;;5022660;28;20245;-76
2021/12/02 09:35:15;;;;;;;10.32;9.10;;;5.00;99.90;;;;;;5022080;28;20224;-78
2021/12/02 09:37:43;;;;;;;9.35;8.45;;;5.10;99.90;;;;;;4998483;28;20266;-78
2021/12/02 09:40:12;;;;;;;10.20;9.15;;;5.20;99.90;;;;;;5021444;28;20227;-77
2021/12/02 09:42:40;;;;;;;11.55;9.95;;;5.30;99.90;;;;;;5022606;28;20228;-77
2021/12/02 09:45:13;;;;;;;10.13;9.15;;;5.30;99.90;;;;;;5014734;28;20718;-78
2021/12/02 09:47:44;;;;;;;10.10;9.02;;;5.40;99.90;;;;;;5024061;28;20235;-77
2021/12/02 09:50:16;;;;;;;9.25;8.30;;;5.50;99.90;;;;;;5026673;28;20227;-79
2021/12/02 09:52:44;;;;;;;9.05;8.15;;;5.50;99.90;;;;;;5029769;28;20233;-77
2021/12/02 09:55:19;;;;;;;9.02;8.32;;;5.60;99.90;;;;;;5024587;28;20314;-78
2021/12/02 09:57:49;;;;;;;8.63;7.93;;;5.60;99.90;;;;;;5029605;28;20239;-79
2021/12/02 10:00:21;;;;;;;9.10;7.95;;;5.70;99.90;;;;;;5027677;28;20223;-78
2021/12/02 10:02:54;;;;;;;9.95;9.10;;;5.70;99.90;;;;;;5026466;28;20223;-79
2021/12/02 10:05:32;;;;;;;10.07;8.23;;;5.80;99.90;;;;;;5027078;28;20592;-79
2021/12/02 10:08:03;;;;;;;8.65;7.85;;;6.00;99.90;;;;;;5028615;28;20254;-79
2021/12/02 10:10:33;;;;;;;9.15;8.25;;;6.00;99.90;;;;;;5025634;28;20227;-77
2021/12/02 10:13:21;;;;;;;9.20;8.35;;;6.00;99.90;;;;;;5021452;28;20234;-77
2021/12/02 10:16:18;;;;;;;10.15;9.15;;;6.00;99.90;;;;;;5024274;28;20674;-77
2021/12/02 10:18:59;;;;;;;11.88;9.88;;;6.00;99.90;;;;;;5020224;28;20378;-77
2021/12/02 10:21:30;;;;;;;9.90;9.02;;;5.90;99.90;;;;;;5022149;28;20223;-76
2021/12/02 10:24:01;;;;;;;10.30;9.30;;;5.80;99.90;;;;;;5022334;28;20231;-78
2021/12/02 10:26:28;;;;;;;10.30;9.30;;;5.80;99.90;;;;;;5031603;28;20230;-78
2021/12/02 10:28:55;;;;;;;10.25;9.35;;;5.80;99.90;;;;;;5032812;28;20227;-78
2021/12/02 10:31:26;;;;;;;12.73;10.20;;;5.90;99.90;;;;;;5028318;28;20239;-78
2021/12/02 10:33:57;;;;;;;10.48;9.45;;;5.90;99.90;;;;;;5029176;28;20235;-78
2021/12/02 10:36:31;;;;;;;9.65;8.75;;;6.00;99.90;;;;;;5029270;28;20227;-78
2021/12/02 10:39:12;;;;;;;11.07;9.90;;;6.00;99.90;;;;;;5025852;28;20220;-78
2021/12/02 10:41:43;;;;;;;11.82;10.27;;;6.20;99.90;;;;;;5028019;28;20681;-79
2021/12/02 10:44:14;;;;;;;12.02;10.68;;;6.30;99.90;;;;;;5028577;28;20609;-78
2021/12/02 10:47:03;;;;;;;10.70;9.60;;;6.40;99.90;;;;;;5030379;28;20624;-78
2021/12/02 10:49:34;;;;;;;10.90;9.82;;;6.50;99.90;;;;;;5021108;28;20247;-77
2021/12/02 10:52:03;;;;;;;11.10;9.95;;;6.60;99.90;;;;;;5020102;28;20239;-78
2021/12/02 10:54:34;;;;;;;10.75;9.77;;;6.60;99.90;;;;;;5025303;28;20239;-79
2021/12/02 10:57:07;;;;;;;10.45;9.40;;;6.70;99.90;;;;;;5027623;28;20226;-79
2021/12/02 10:59:47;;;;;;;9.90;9.00;;;6.80;99.90;;;;;;5021773;28;20281;-76
2021/12/02 11:02:22;;;;;;;10.02;8.93;;;7.00;99.90;;;;;;5019233;28;20224;-76
2021/12/02 11:04:53;;;;;;;9.57;8.77;;;7.20;99.90;;;;;;5020146;28;20222;-78
2021/12/02 11:07:23;;;;;;;9.95;8.95;;;7.20;99.90;;;;;;5018607;28;20313;-76
2021/12/02 11:09:51;;;;;;;10.50;9.50;;;7.30;99.90;;;;;;5019766;28;20232;-74
2021/12/02 11:12:22;;;;;;;10.65;9.60;;;7.40;99.90;;;;;;5020514;28;20438;-77
2021/12/02 11:15:09;;;;;;;12.20;10.45;;;7.40;99.90;;;;;;5023712;28;20240;-77
2021/12/02 11:17:44;;;;;;;12.02;10.82;;;7.40;99.90;;;;;;5023839;28;20518;-76
2021/12/02 11:20:15;;;;;;;14.77;10.93;;;7.40;99.90;;;;;;5029829;28;20227;-75
2021/12/02 11:22:42;;;;;;;11.45;10.25;;;7.40;99.90;;;;;;5025045;28;20223;-76
2021/12/02 11:25:12;;;;;;;11.50;10.07;;;7.40;99.90;;;;;;5022247;28;20598;-77
2021/12/02 11:27:41;;;;;;;12.55;11.30;;;7.40;99.90;;;;;;5027376;28;20238;-77
2021/12/02 11:30:13;;;;;;;11.65;10.48;;;7.40;99.90;;;;;;5025509;28;20231;-77
2021/12/02 11:32:50;;;;;;;11.35;10.15;;;7.30;99.90;;;;;;5026324;28;20754;-77
2021/12/02 11:35:23;;;;;;;11.18;10.13;;;7.40;99.90;;;;;;5029663;28;20234;-78
2021/12/02 11:37:56;;;;;;;12.93;10.60;;;7.40;99.90;;;;;;5025504;28;20302;-77
2021/12/02 11:40:26;;;;;;;10.60;9.50;;;7.40;99.90;;;;;;5026001;28;20757;-77
2021/12/02 11:42:54;;;;;;;11.45;10.30;;;7.40;99.90;;;;;;5028894;28;20737;-77
2021/12/02 11:45:24;;;;;;;12.35;10.05;;;7.30;99.90;;;;;;5029101;28;20538;-78
2021/12/02 11:47:54;;;;;;;10.95;9.77;;;7.40;99.90;;;;;;5028828;28;20226;-78
2021/12/02 11:50:23;;;;;;;10.88;9.75;;;7.40;99.90;;;;;;5027444;28;20235;-78
2021/12/02 11:52:50;;;;;;;11.20;10.10;;;7.40;99.90;;;;;;5024945;28;20281;-75
2021/12/02 11:55:20;;;;;;;11.30;10.23;;;7.30;99.90;;;;;;5029868;28;20231;-77
2021/12/02 11:57:48;;;;;;;11.40;10.23;;;7.20;99.90;;;;;;5030543;28;20254;-77
2021/12/02 12:00:18;;;;;;;10.68;9.68;;;7.10;99.90;;;;;;5026354;28;20725;-75
2021/12/02 12:02:53;;;;;;;10.38;9.48;;;7.00;99.90;;;;;;5027131;28;20242;-76
2021/12/02 12:05:28;;;;;;;11.52;10.40;;;6.90;99.90;;;;;;5024355;28;20575;-76
2021/12/02 12:07:56;;;;;;;12.52;10.27;;;6.90;99.90;;;;;;5026726;28;20233;-75
2021/12/02 12:10:31;;;;;;;11.38;10.23;;;6.90;99.90;;;;;;5026883;28;20227;-76
2021/12/02 12:13:28;;;;;;;10.77;9.68;;;6.90;99.90;;;;;;5024960;28;20227;-76
2021/12/02 12:15:58;;;;;;;11.75;10.65;;;7.00;99.90;;;;;;4964253;28;20229;-76
2021/12/02 12:18:40;;;;;;;11.02;9.85;;;7.20;99.90;;;;;;5013850;28;20280;-76
2021/12/02 12:21:12;;;;;;;11.25;10.25;;;7.30;99.90;;;;;;5055333;22;20242;-73
2021/12/02 12:23:48;;;;;;;11.50;10.35;;;7.40;99.90;;;;;;5036636;28;20236;-73
2021/12/02 12:26:30;;;;;;;10.48;9.38;;;7.40;99.90;;;;;;5040416;28;20743;-73
2021/12/02 12:29:37;;;;;;;12.70;11.38;;;7.40;99.90;;;;;;5038919;28;20708;-73
2021/12/02 12:32:20;;;;;;;12.02;10.70;;;7.40;99.90;;;;;;5043484;28;20226;-74
2021/12/02 12:34:56;;;;;;;12.55;11.27;;;7.30;99.90;;;;;;5039669;28;20282;-73
2021/12/02 12:40:48;;;;;;;14.65;11.18;;;7.40;99.90;;;;;;5041983;28;20287;-74
2021/12/02 12:43:25;;;;;;;12.68;11.20;;;7.40;99.90;;;;;;5039808;28;20218;-75
2021/12/02 12:46:18;;;;;;;11.30;10.30;;;7.50;99.90;;;;;;5043504;28;20223;-75
2021/12/02 12:48:46;;;;;;;12.60;11.35;;;7.50;99.90;;;;;;5038597;28;20223;-73
2021/12/02 12:51:30;;;;;;;11.55;10.43;;;7.50;99.90;;;;;;5044772;28;20239;-73
2021/12/02 12:53:58;;;;;;;12.20;10.73;;;7.60;99.90;;;;;;5043696;28;20226;-75
2021/12/02 12:56:42;;;;;;;13.07;11.82;;;7.60;99.90;;;;;;5042437;28;20227;-73
2021/12/02 12:59:12;;;;;;;15.48;12.32;;;7.50;99.90;;;;;;5036734;28;20231;-74
2021/12/02 13:01:48;;;;;;;12.18;11.07;;;7.40;99.90;;;;;;5039318;28;20284;-73
2021/12/02 13:04:21;;;;;;;11.68;10.48;;;7.40;99.90;;;;;;5042942;28;20214;-73
2021/12/02 13:06:52;;;;;;;10.80;9.70;;;7.30;99.90;;;;;;5041954;28;20230;-74
2021/12/02 13:09:40;;;;;;;11.90;10.68;;;7.30;99.90;;;;;;5037284;28;20223;-74
2021/12/02 13:12:10;;;;;;;11.55;10.40;;;7.30;99.90;;;;;;5038672;28;20732;-72
2021/12/02 13:14:38;;;;;;;11.25;10.15;;;7.30;99.90;;;;;;5038233;28;20243;-73
2021/12/02 13:17:39;;;;;;;11.82;10.63;;;7.30;99.90;;;;;;5039701;28;20234;-73